createdAt,value
2022-12-01T00:01:16.038Z,23.55
2022-12-01T00:03:43.017Z,24.60
2022-12-01T00:06:18.628Z,23.20
2022-12-01T00:09:06.231Z,23.60
2022-12-01T00:11:34.332Z,24.55
2022-12-01T00:14:01.396Z,24.80
2022-12-01T00:16:28.367Z,24.17
2022-12-01T00:18:55.070Z,24.02
2022-12-01T00:21:23.769Z,24.63
2022-12-01T00:23:53.066Z,24.65
2022-12-01T00:26:20.669Z,25.00
2022-12-01T00:28:55.138Z,24.30
2022-12-01T00:31:22.169Z,24.42
2022-12-01T00:33:48.836Z,23.02
2022-12-01T00:36:15.533Z,23.67
2022-12-01T00:38:42.196Z,24.58
2022-12-01T00:41:08.845Z,23.80
2022-12-01T00:43:35.566Z,23.88
2022-12-01T00:46:02.556Z,23.58
2022-12-01T00:48:29.219Z,23.08
2022-12-01T00:50:56.289Z,23.13
2022-12-01T00:53:24.466Z,23.00
2022-12-01T00:55:51.217Z,22.83
2022-12-01T00:58:17.829Z,23.65
2022-12-01T01:00:44.382Z,22.33
2022-12-01T01:03:11.405Z,22.90
2022-12-01T01:05:39.620Z,22.73
2022-12-01T01:08:10.897Z,21.77
2022-12-01T01:10:42.166Z,21.35
2022-12-01T01:13:09.886Z,21.90
2022-12-01T01:15:36.775Z,22.23
2022-12-01T01:18:03.743Z,21.67
2022-12-01T01:20:31.056Z,22.23
2022-12-01T01:22:57.857Z,22.42
2022-12-01T01:25:25.181Z,22.92
2022-12-01T01:27:51.758Z,22.30
2022-12-01T01:30:18.625Z,22.07
2022-12-01T01:32:45.257Z,22.23
2022-12-01T01:35:11.991Z,23.13
2022-12-01T01:37:38.541Z,21.75
2022-12-01T01:40:06.013Z,22.20
2022-12-01T01:42:32.614Z,22.30
2022-12-01T01:44:59.273Z,21.60
2022-12-01T01:47:35.871Z,21.65
2022-12-01T01:50:09.040Z,22.70
2022-12-01T01:52:38.525Z,23.15
2022-12-01T01:55:05.978Z,23.93
2022-12-01T01:57:34.709Z,21.38
2022-12-01T02:00:07.955Z,23.83
2022-12-01T02:02:40.672Z,23.65
2022-12-01T02:05:10.959Z,22.10
2022-12-01T02:07:41.901Z,23.50
2022-12-01T02:10:13.054Z,21.65
2022-12-01T02:12:49.713Z,23.45
2022-12-01T02:15:58.376Z,22.70
2022-12-01T02:18:44.037Z,24.90
2022-12-01T02:21:28.678Z,22.63
2022-12-01T02:24:25.165Z,23.58
2022-12-01T02:27:09.268Z,22.55
2022-12-01T02:30:01.086Z,23.83
2022-12-01T02:32:30.897Z,22.35
2022-12-01T02:35:51.777Z,22.87
2022-12-01T02:38:29.726Z,22.77
2022-12-01T02:41:20.250Z,24.23
2022-12-01T02:44:02.079Z,24.02
2022-12-01T02:46:44.499Z,22.35
2022-12-01T02:49:18.627Z,23.13
2022-12-01T02:51:53.270Z,23.27
2022-12-01T02:54:23.844Z,22.85
2022-12-01T02:56:54.775Z,22.70
2022-12-01T02:59:21.897Z,24.25
2022-12-01T03:02:12.756Z,22.80
2022-12-01T03:04:50.021Z,23.17
2022-12-01T03:07:36.157Z,23.52
2022-12-01T03:10:29.800Z,22.40
2022-12-01T03:13:25.425Z,21.75
2022-12-01T03:16:18.356Z,21.77
2022-12-01T03:19:18.839Z,22.83
2022-12-01T03:22:01.306Z,22.90
2022-12-01T03:24:34.584Z,22.10
2022-12-01T03:27:03.441Z,21.52
2022-12-01T03:29:32.475Z,20.73
2022-12-01T03:32:05.959Z,22.33
2022-12-01T03:34:42.525Z,22.42
2022-12-01T03:38:10.988Z,21.65
2022-12-01T03:40:39.225Z,22.40
2022-12-01T03:43:15.693Z,21.40
2022-12-01T03:45:59.365Z,22.08
2022-12-01T03:48:26.901Z,21.88
2022-12-01T03:51:21.951Z,21.13
2022-12-01T03:54:12.702Z,20.88
2022-12-01T03:57:06.584Z,21.80
2022-12-01T04:09:58.567Z,21.17
2022-12-01T04:12:33.663Z,21.50
2022-12-01T04:15:05.936Z,21.55
2022-12-01T04:17:34.809Z,22.25
2022-12-01T04:22:48.112Z,22.38
2022-12-01T04:25:22.897Z,22.00
2022-12-01T04:27:55.028Z,21.95
2022-12-01T04:30:25.087Z,22.70
2022-12-01T04:32:53.280Z,24.65
2022-12-01T04:35:30.490Z,23.23
2022-12-01T04:40:54.636Z,22.27
2022-12-01T04:43:27.108Z,24.33
2022-12-01T04:45:53.697Z,22.80
2022-12-01T04:48:20.237Z,23.17
2022-12-01T04:50:49.281Z,22.73
2022-12-01T04:53:15.898Z,22.73
2022-12-01T04:55:42.475Z,23.40
2022-12-01T04:58:09.036Z,22.55
2022-12-01T05:00:35.620Z,21.80
2022-12-01T05:03:02.391Z,21.37
2022-12-01T05:05:29.775Z,23.05
2022-12-01T05:07:58.148Z,23.08
2022-12-01T05:10:25.433Z,23.50
2022-12-01T05:12:52.057Z,23.35
2022-12-01T05:15:18.877Z,23.80
2022-12-01T05:17:45.512Z,21.85
2022-12-01T05:20:38.746Z,23.20
2022-12-01T05:23:06.458Z,21.35
2022-12-01T05:25:34.116Z,21.48
2022-12-01T05:28:01.122Z,21.37
2022-12-01T05:30:28.900Z,21.58
2022-12-01T05:32:55.694Z,22.80
2022-12-01T05:35:22.345Z,22.60
2022-12-01T05:37:48.909Z,23.65
2022-12-01T05:40:15.551Z,22.97
2022-12-01T05:42:42.090Z,23.77
2022-12-01T05:45:09.172Z,22.65
2022-12-01T05:47:35.728Z,20.55
2022-12-01T05:50:05.758Z,21.55
2022-12-01T05:52:35.134Z,21.43
2022-12-01T05:55:03.624Z,21.38
2022-12-01T05:57:31.295Z,23.13
2022-12-01T05:59:58.264Z,22.77
2022-12-01T06:02:26.747Z,23.33
2022-12-01T06:04:53.830Z,22.83
2022-12-01T06:07:21.045Z,23.33
2022-12-01T06:09:48.008Z,23.42
2022-12-01T06:12:14.935Z,24.20
2022-12-01T06:14:42.049Z,23.77
2022-12-01T06:17:08.637Z,22.30
2022-12-01T06:19:35.505Z,24.17
2022-12-01T06:22:02.292Z,23.38
2022-12-01T06:24:28.901Z,22.27
2022-12-01T06:26:55.475Z,23.60
2022-12-01T06:29:22.053Z,22.53
2022-12-01T06:31:48.698Z,22.08
2022-12-01T06:34:15.282Z,22.75
2022-12-01T06:36:41.834Z,22.20
2022-12-01T06:39:10.066Z,20.65
2022-12-01T06:41:37.603Z,20.43
2022-12-01T06:44:04.943Z,22.98
2022-12-01T06:46:31.733Z,22.85
2022-12-01T06:48:58.372Z,22.48
2022-12-01T06:51:24.946Z,21.73
2022-12-01T06:53:55.106Z,21.93
2022-12-01T06:56:22.592Z,22.20
2022-12-01T06:58:50.413Z,22.88
2022-12-01T07:01:17.960Z,22.42
2022-12-01T07:03:49.151Z,23.70
2022-12-01T07:06:15.966Z,22.07
2022-12-01T07:08:42.573Z,23.75
2022-12-01T07:11:14.614Z,24.17
2022-12-01T07:13:42.696Z,24.40
2022-12-01T07:16:09.727Z,22.52
2022-12-01T07:18:37.061Z,23.60
2022-12-01T07:21:06.958Z,23.58
2022-12-01T07:23:34.059Z,25.20
2022-12-01T07:26:05.117Z,23.70
2022-12-01T07:28:32.119Z,22.77
2022-12-01T07:31:14.423Z,23.73
2022-12-01T07:33:41.358Z,24.20
2022-12-01T07:36:08.981Z,24.98
2022-12-01T07:38:35.981Z,24.35
2022-12-01T07:41:08.555Z,24.15
2022-12-01T07:43:35.745Z,23.73
2022-12-01T07:46:11.224Z,24.48
2022-12-01T07:48:38.987Z,25.45
2022-12-01T07:51:07.583Z,25.42
2022-12-01T07:53:35.018Z,26.13
2022-12-01T07:56:07.048Z,25.73
2022-12-01T07:58:35.359Z,25.45
2022-12-01T08:01:19.579Z,26.13
2022-12-01T08:03:51.522Z,25.58
2022-12-01T08:06:19.393Z,26.02
2022-12-01T08:08:46.085Z,26.43
2022-12-01T08:11:15.514Z,26.08
2022-12-01T08:13:42.995Z,24.98
2022-12-01T08:16:12.159Z,24.08
2022-12-01T08:18:39.849Z,24.98
2022-12-01T08:21:08.003Z,24.83
2022-12-01T08:23:34.671Z,24.90
2022-12-01T08:26:06.404Z,24.98
2022-12-01T08:28:35.312Z,25.52
2022-12-01T08:31:13.342Z,25.73
2022-12-01T08:33:40.628Z,24.03
2022-12-01T08:36:07.657Z,26.90
2022-12-01T08:38:34.385Z,27.17
2022-12-01T08:41:06.658Z,25.65
2022-12-01T08:43:56.460Z,25.55
2022-12-01T08:46:20.784Z,26.47
2022-12-01T08:48:47.451Z,27.48
2022-12-01T08:51:17.565Z,27.45
2022-12-01T08:53:48.015Z,28.05
2022-12-01T08:56:22.057Z,29.20
2022-12-01T08:58:48.865Z,27.00
2022-12-01T09:01:16.297Z,27.42
2022-12-01T09:03:44.026Z,28.10
2022-12-01T09:06:16.495Z,28.63
2022-12-01T09:08:43.747Z,31.02
2022-12-01T09:11:13.313Z,27.60
2022-12-01T09:13:40.818Z,28.17
2022-12-01T09:16:12.713Z,29.63
2022-12-01T09:18:39.429Z,26.85
2022-12-01T09:21:19.832Z,30.17
2022-12-01T09:23:46.799Z,28.10
2022-12-01T09:26:18.083Z,28.30
2022-12-01T09:29:09.097Z,28.80
2022-12-01T09:31:36.318Z,27.40
2022-12-01T09:34:07.647Z,27.50
2022-12-01T09:36:36.421Z,28.17
2022-12-01T09:39:04.046Z,29.08
2022-12-01T09:41:47.661Z,26.77
2022-12-01T09:44:50.798Z,26.63
2022-12-01T09:47:26.187Z,27.50
2022-12-01T09:50:13.126Z,27.50
2022-12-01T09:52:50.216Z,28.10
2022-12-01T09:55:20.007Z,26.58
2022-12-01T09:57:48.601Z,27.90
2022-12-01T10:00:25.275Z,27.35
2022-12-01T10:03:06.923Z,27.57
2022-12-01T10:06:10.349Z,27.13
2022-12-01T10:08:37.434Z,27.15
2022-12-01T10:11:27.382Z,27.27
2022-12-01T10:13:54.044Z,28.85
2022-12-01T10:16:28.415Z,28.80
2022-12-01T10:19:11.141Z,28.45
2022-12-01T10:22:06.597Z,28.58
2022-12-01T10:24:51.792Z,29.23
2022-12-01T10:27:39.071Z,29.20
2022-12-01T10:30:15.325Z,28.97
2022-12-01T10:32:54.978Z,29.13
2022-12-01T10:35:24.885Z,29.08
2022-12-01T10:37:58.534Z,31.17
2022-12-01T10:40:27.073Z,30.00
2022-12-01T10:42:54.211Z,30.17
2022-12-01T10:45:27.542Z,29.50
2022-12-01T10:48:16.837Z,30.00
2022-12-01T10:50:53.571Z,28.15
2022-12-01T10:53:23.212Z,28.42
2022-12-01T10:55:56.215Z,28.57
2022-12-01T10:58:23.125Z,28.08
2022-12-01T11:01:00.340Z,28.50
2022-12-01T11:03:34.520Z,26.63
2022-12-01T11:06:06.011Z,27.88
2022-12-01T11:08:50.441Z,27.00
2022-12-01T11:11:33.279Z,27.55
2022-12-01T11:14:03.590Z,28.02
2022-12-01T11:16:37.555Z,27.05
2022-12-01T11:19:35.159Z,28.05
2022-12-01T11:22:18.545Z,27.10
2022-12-01T11:24:57.407Z,26.80
2022-12-01T11:27:36.313Z,27.02
2022-12-01T11:30:20.283Z,25.73
2022-12-01T11:33:02.950Z,26.17
2022-12-01T11:35:36.495Z,26.53
2022-12-01T11:40:56.058Z,26.45
2022-12-01T11:43:50.556Z,26.23
2022-12-01T11:46:46.253Z,26.55
2022-12-01T11:49:20.718Z,26.13
2022-12-01T11:51:47.742Z,26.45
2022-12-01T11:54:18.528Z,27.45
2022-12-01T11:56:46.721Z,28.25
2022-12-01T11:59:17.762Z,27.40
2022-12-01T12:02:09.517Z,26.40
2022-12-01T12:04:58.194Z,25.98
2022-12-01T12:07:54.861Z,27.35
2022-12-01T12:10:33.643Z,25.90
2022-12-01T12:13:15.575Z,26.35
2022-12-01T12:16:11.457Z,24.83
2022-12-01T12:19:01.526Z,25.75
2022-12-01T12:21:33.822Z,25.73
2022-12-01T12:24:24.743Z,25.33
2022-12-01T12:26:58.115Z,26.08
2022-12-01T12:29:36.745Z,24.40
2022-12-01T12:32:39.309Z,25.05
2022-12-01T12:35:23.739Z,24.05
2022-12-01T12:38:09.260Z,25.20
2022-12-01T12:40:44.539Z,24.88
2022-12-01T12:43:35.108Z,24.83
2022-12-01T12:46:07.324Z,23.25
2022-12-01T12:49:21.056Z,23.33
2022-12-01T12:52:08.184Z,22.17
2022-12-01T12:54:50.488Z,22.88
2022-12-01T12:57:37.832Z,22.70
2022-12-01T13:00:15.878Z,22.60
2022-12-01T13:02:51.421Z,22.90
2022-12-01T13:05:30.816Z,22.77
2022-12-01T13:08:11.105Z,23.52
2022-12-01T13:10:48.956Z,22.53
2022-12-01T13:13:35.318Z,23.35
2022-12-01T13:16:03.362Z,25.08
2022-12-01T13:18:39.746Z,23.30
2022-12-01T13:21:07.149Z,24.95
2022-12-01T13:23:35.998Z,23.67
2022-12-01T13:26:08.035Z,23.63
2022-12-01T13:28:49.051Z,24.42
2022-12-01T13:31:17.793Z,23.45
2022-12-01T13:34:05.867Z,23.33
2022-12-01T13:36:49.227Z,22.80
2022-12-01T13:39:29.337Z,22.75
2022-12-01T13:42:02.915Z,24.27
2022-12-01T13:44:44.692Z,22.15
2022-12-01T13:47:11.261Z,22.15
2022-12-01T13:49:48.672Z,22.50
2022-12-01T13:52:21.689Z,22.77
2022-12-01T13:55:03.493Z,23.10
2022-12-01T13:57:32.818Z,21.88
2022-12-01T13:59:59.366Z,21.40
2022-12-01T14:02:31.547Z,22.97
2022-12-01T14:05:23.221Z,23.23
2022-12-01T14:07:51.775Z,22.75
2022-12-01T14:10:28.623Z,22.80
2022-12-01T14:13:02.950Z,22.17
2022-12-01T14:15:42.450Z,21.97
2022-12-01T14:18:18.423Z,22.70
2022-12-01T14:20:46.967Z,22.83
2022-12-01T14:23:30.443Z,22.33
2022-12-01T14:26:20.614Z,22.52
2022-12-01T14:29:08.741Z,20.80
2022-12-01T14:31:35.351Z,22.33
2022-12-01T14:34:12.131Z,23.33
2022-12-01T14:36:48.137Z,20.83
2022-12-01T14:39:17.933Z,21.88
2022-12-01T14:41:49.968Z,21.63
2022-12-01T14:44:35.756Z,20.77
2022-12-01T14:47:10.597Z,20.85
2022-12-01T14:50:07.429Z,20.88
2022-12-01T14:52:38.415Z,21.33
2022-12-01T14:55:13.291Z,21.23
2022-12-01T14:57:45.826Z,23.02
2022-12-01T15:00:21.294Z,20.08
2022-12-01T15:02:56.499Z,20.75
2022-12-01T15:05:27.301Z,22.42
2022-12-01T15:08:40.273Z,20.50
2022-12-01T15:11:07.921Z,21.73
2022-12-01T15:13:56.934Z,21.42
2022-12-01T15:16:30.855Z,21.67
2022-12-01T15:18:57.693Z,21.50
2022-12-01T15:21:31.834Z,22.33
2022-12-01T15:24:01.138Z,21.50
2022-12-01T15:26:34.961Z,20.60
2022-12-01T15:29:05.783Z,20.92
2022-12-01T15:31:33.889Z,21.02
2022-12-01T15:34:00.741Z,20.67
2022-12-01T15:36:27.485Z,21.02
2022-12-01T15:38:54.473Z,21.58
2022-12-01T15:41:30.566Z,19.58
2022-12-01T15:44:01.828Z,21.42
2022-12-01T15:46:30.668Z,22.47
2022-12-01T15:49:24.146Z,20.90
2022-12-01T15:51:51.809Z,21.02
2022-12-01T15:54:25.314Z,22.52
2022-12-01T15:56:58.481Z,21.42
2022-12-01T15:59:31.413Z,20.47
2022-12-01T16:01:58.467Z,20.65
2022-12-01T16:04:28.486Z,20.85
2022-12-01T16:07:08.064Z,20.98
2022-12-01T16:09:37.210Z,20.90
2022-12-01T16:12:22.098Z,20.20
2022-12-01T16:15:00.865Z,20.42
2022-12-01T16:17:51.662Z,22.35
2022-12-01T16:20:25.815Z,21.00
2022-12-01T16:23:02.290Z,20.95
2022-12-01T16:25:31.856Z,21.30
2022-12-01T16:27:58.713Z,21.10
2022-12-01T16:30:41.416Z,20.85
2022-12-01T16:33:19.979Z,21.10
2022-12-01T16:35:50.427Z,19.58
2022-12-01T16:38:23.340Z,21.60
2022-12-01T16:40:55.422Z,21.52
2022-12-01T16:43:24.542Z,20.15
2022-12-01T16:45:58.856Z,20.80
2022-12-01T16:48:25.598Z,21.08
2022-12-01T16:50:53.329Z,22.00
2022-12-01T16:53:19.878Z,20.83
2022-12-01T16:55:56.569Z,20.52
2022-12-01T16:58:23.554Z,20.13
2022-12-01T17:00:53.465Z,20.48
2022-12-01T17:03:22.156Z,20.70
2022-12-01T17:05:49.354Z,20.33
2022-12-01T17:08:16.863Z,20.63
2022-12-01T17:10:45.460Z,20.42
2022-12-01T17:13:12.764Z,20.40
2022-12-01T17:15:48.463Z,20.80
2022-12-01T17:18:17.426Z,19.65
2022-12-01T17:20:44.271Z,19.73
2022-12-01T17:23:11.503Z,19.77
2022-12-01T17:25:41.858Z,19.38
2022-12-01T17:28:08.434Z,19.93
2022-12-01T17:30:36.862Z,19.25
2022-12-01T17:33:03.830Z,20.70
2022-12-01T17:35:30.463Z,19.88
2022-12-01T17:37:57.076Z,19.33
2022-12-01T17:40:23.977Z,19.13
2022-12-01T17:42:51.025Z,18.92
2022-12-01T17:45:18.743Z,19.77
2022-12-01T17:47:48.242Z,19.55
2022-12-01T17:50:15.012Z,19.73
2022-12-01T17:52:41.747Z,19.57
2022-12-01T17:55:08.868Z,19.00
2022-12-01T17:57:35.505Z,19.52
2022-12-01T18:00:02.364Z,18.98
2022-12-01T18:02:28.913Z,19.15
2022-12-01T18:04:55.566Z,18.57
2022-12-01T18:07:22.348Z,19.33
2022-12-01T18:09:48.950Z,20.52
2022-12-01T18:12:15.545Z,19.10
2022-12-01T18:14:42.170Z,18.17
2022-12-01T18:17:08.815Z,19.27
2022-12-01T18:19:35.497Z,17.90
2022-12-01T18:22:02.206Z,19.27
2022-12-01T18:24:29.497Z,18.85
2022-12-01T18:26:56.503Z,19.92
2022-12-01T18:29:26.307Z,19.67
2022-12-01T18:31:55.169Z,19.27
2022-12-01T18:34:21.835Z,19.48
2022-12-01T18:36:48.594Z,18.02
2022-12-01T18:39:15.255Z,19.15
2022-12-01T18:41:42.089Z,17.90
2022-12-01T18:44:09.025Z,17.77
2022-12-01T18:46:35.798Z,18.58
2022-12-01T18:49:02.967Z,17.98
2022-12-01T18:51:32.862Z,19.27
2022-12-01T18:54:01.176Z,18.10
2022-12-01T18:56:28.362Z,17.52
2022-12-01T18:59:01.383Z,18.02
2022-12-01T19:01:33.866Z,17.02
2022-12-01T19:04:01.229Z,18.00
2022-12-01T19:06:28.905Z,17.40
2022-12-01T19:08:58.268Z,17.92
2022-12-01T19:11:24.874Z,16.33
2022-12-01T19:13:51.579Z,16.75
2022-12-01T19:16:20.017Z,17.95
2022-12-01T19:18:47.621Z,16.73
2022-12-01T19:21:16.676Z,17.08
2022-12-01T19:23:45.040Z,17.80
2022-12-01T19:26:14.149Z,17.65
2022-12-01T19:28:42.222Z,17.98
2022-12-01T19:31:11.284Z,18.03
2022-12-01T19:33:38.568Z,18.48
2022-12-01T19:36:17.571Z,18.13
2022-12-01T19:38:45.034Z,17.90
2022-12-01T19:41:12.880Z,17.33
2022-12-01T19:43:39.950Z,18.43
2022-12-01T19:46:12.600Z,18.90
2022-12-01T19:48:39.693Z,18.27
2022-12-01T19:51:06.823Z,20.45
2022-12-01T19:53:34.278Z,19.33
2022-12-01T19:56:05.329Z,17.00
2022-12-01T19:58:36.312Z,17.25
2022-12-01T20:01:10.120Z,18.15
2022-12-01T20:03:38.014Z,16.25
2022-12-01T20:06:06.821Z,17.85
2022-12-01T20:08:35.858Z,18.23
2022-12-01T20:11:04.203Z,17.58
2022-12-01T20:13:36.255Z,17.60
2022-12-01T20:16:05.690Z,18.50
2022-12-01T20:18:32.473Z,18.25
2022-12-01T20:21:07.428Z,17.43
2022-12-01T20:23:34.898Z,16.58
2022-12-01T20:26:03.680Z,17.80
2022-12-01T20:28:31.216Z,18.15
2022-12-01T20:30:58.677Z,16.73
2022-12-01T20:33:26.381Z,17.63
2022-12-01T20:35:53.126Z,16.65
2022-12-01T20:38:25.815Z,18.90
2022-12-01T20:40:54.252Z,18.48
2022-12-01T20:43:20.873Z,19.00
2022-12-01T20:45:47.577Z,19.17
2022-12-01T20:48:14.265Z,18.83
2022-12-01T20:50:40.893Z,19.40
2022-12-01T20:53:07.768Z,19.50
2022-12-01T20:55:36.651Z,18.77
2022-12-01T20:58:05.089Z,18.90
2022-12-01T21:00:32.137Z,19.40
2022-12-01T21:02:58.894Z,19.17
2022-12-01T21:05:26.642Z,18.58
2022-12-01T21:07:54.045Z,20.10
2022-12-01T21:10:20.839Z,19.60
2022-12-01T21:13:12.609Z,20.00
2022-12-01T21:16:00.098Z,19.30
2022-12-01T21:18:45.960Z,18.73
2022-12-01T21:21:28.951Z,18.52
2022-12-01T21:24:07.522Z,18.60
2022-12-01T21:26:36.433Z,20.05
2022-12-01T21:29:10.517Z,19.48
2022-12-01T21:31:37.144Z,19.27
2022-12-01T21:34:13.892Z,17.98
2022-12-01T21:36:40.458Z,18.10
2022-12-01T21:39:16.474Z,17.52
2022-12-01T21:41:43.201Z,18.48
2022-12-01T21:44:21.265Z,19.00
2022-12-01T21:46:53.357Z,17.60
2022-12-01T21:49:21.789Z,18.37
2022-12-01T21:51:51.621Z,18.35
2022-12-01T21:54:22.362Z,19.10
2022-12-01T21:56:51.114Z,19.38
2022-12-01T21:59:22.841Z,19.33
2022-12-01T22:01:53.824Z,18.13
2022-12-01T22:04:28.644Z,19.58
2022-12-01T22:06:56.977Z,19.33
2022-12-01T22:09:23.550Z,18.85
2022-12-01T22:11:59.551Z,20.35
2022-12-01T22:14:36.380Z,19.63
2022-12-01T22:17:18.390Z,19.58
2022-12-01T22:19:49.618Z,19.98
2022-12-01T22:22:27.219Z,19.17
2022-12-01T22:24:58.199Z,19.95
2022-12-01T22:27:38.918Z,21.17
2022-12-01T22:30:05.418Z,20.13
2022-12-01T22:32:41.229Z,20.42
2022-12-01T22:35:36.279Z,20.85
2022-12-01T22:38:08.729Z,20.48
2022-12-01T22:40:47.037Z,20.17
2022-12-01T22:43:21.043Z,19.33
2022-12-01T22:45:48.804Z,20.58
2022-12-01T22:48:27.650Z,19.60
2022-12-01T22:50:55.206Z,21.00
2022-12-01T22:53:29.261Z,22.20
2022-12-01T22:55:59.441Z,22.75
2022-12-01T22:58:38.527Z,22.42
2022-12-01T23:01:22.390Z,21.23
2022-12-01T23:03:49.450Z,20.70
2022-12-01T23:06:49.190Z,21.37
2022-12-01T23:09:15.950Z,20.55
2022-12-01T23:11:43.967Z,20.83
2022-12-01T23:14:20.886Z,21.80
2022-12-01T23:16:47.473Z,21.38
2022-12-01T23:19:14.324Z,21.47
2022-12-01T23:21:41.021Z,22.65
2022-12-01T23:24:10.739Z,24.63
2022-12-01T23:26:37.320Z,27.45
2022-12-01T23:29:03.849Z,29.20
2022-12-01T23:31:30.551Z,30.60
2022-12-01T23:33:57.139Z,30.60
2022-12-01T23:36:27.517Z,32.15
2022-12-01T23:39:01.638Z,31.65
2022-12-01T23:41:36.011Z,30.77
2022-12-01T23:44:17.638Z,33.83
2022-12-01T23:46:44.974Z,34.05
2022-12-01T23:49:15.797Z,34.72
2022-12-01T23:51:54.697Z,34.10
2022-12-01T23:54:26.449Z,33.00
2022-12-01T23:56:56.322Z,33.00
2022-12-01T23:59:23.669Z,34.92
